createdAt,value
2018-06-29T00:00:57.540Z,22.14
2018-06-29T00:02:07.357Z,22.09
2018-06-29T00:03:17.424Z,22.11
2018-06-29T00:04:27.244Z,22.12
2018-06-29T00:05:37.324Z,22.09
2018-06-29T00:06:47.382Z,22.08
2018-06-29T00:07:57.462Z,22.07
2018-06-29T00:09:07.263Z,22.08
2018-06-29T00:10:17.085Z,22.08
2018-06-29T00:11:27.140Z,22.14
2018-06-29T00:12:36.962Z,21.96
2018-06-29T00:13:47.045Z,22.08
2018-06-29T00:14:56.836Z,22.07
2018-06-29T00:16:06.906Z,22.05
2018-06-29T00:17:16.981Z,22
2018-06-29T00:18:27.059Z,21.96
2018-06-29T00:19:36.597Z,21.99
2018-06-29T00:20:46.677Z,21.97
2018-06-29T00:21:56.474Z,21.92
2018-06-29T00:23:06.560Z,21.93
2018-06-29T00:24:16.619Z,21.93
2018-06-29T00:25:26.687Z,21.85
2018-06-29T00:26:36.825Z,21.86
2018-06-29T00:27:46.893Z,21.85
2018-06-29T00:28:56.956Z,21.8
2018-06-29T00:30:06.768Z,21.89
2018-06-29T00:31:16.842Z,21.92
2018-06-29T00:32:26.673Z,21.83
2018-06-29T00:33:36.762Z,21.83
2018-06-29T00:34:46.827Z,21.83
2018-06-29T00:35:56.902Z,21.9
2018-06-29T00:37:06.967Z,21.89
2018-06-29T00:38:16.834Z,21.92
2018-06-29T00:39:26.903Z,21.96
2018-06-29T00:40:37.013Z,21.93
2018-06-29T00:41:47.088Z,21.97
2018-06-29T00:42:57.153Z,22.02
2018-06-29T00:44:07.234Z,21.99
2018-06-29T00:45:17.309Z,21.94
2018-06-29T00:46:27.376Z,21.97
2018-06-29T00:47:37.185Z,21.99
2018-06-29T00:48:47.276Z,21.99
2018-06-29T00:49:57.388Z,22.05
2018-06-29T00:51:07.464Z,22.11
2018-06-29T00:52:17.006Z,21.99
2018-06-29T00:53:27.076Z,22.08
2018-06-29T00:54:37.308Z,22.15
2018-06-29T00:55:47.598Z,22.09
2018-06-29T00:56:57.666Z,22.18
2018-06-29T00:58:07.736Z,22.11
2018-06-29T00:59:17.797Z,22.12
2018-06-29T01:00:27.607Z,22.18
2018-06-29T01:01:37.673Z,22.16
2018-06-29T01:02:47.735Z,22.2
2018-06-29T01:03:57.287Z,22.16
2018-06-29T01:05:07.114Z,22.15
2018-06-29T01:06:16.914Z,22.16
2018-06-29T01:07:26.977Z,22.22
2018-06-29T01:08:36.808Z,22.2
2018-06-29T01:09:46.352Z,22.18
2018-06-29T01:10:56.159Z,22.23
2018-06-29T01:12:05.980Z,22.16
2018-06-29T01:13:16.055Z,22.12
2018-06-29T01:14:26.150Z,22.08
2018-06-29T01:15:36.224Z,22.16
2018-06-29T01:16:46.396Z,22.23
2018-06-29T01:17:56.195Z,22.12
2018-06-29T01:19:06.259Z,22.09
2018-06-29T01:20:16.062Z,22.07
2018-06-29T01:21:26.153Z,22.04
2018-06-29T01:22:35.702Z,22.08
2018-06-29T01:23:45.776Z,22.08
2018-06-29T01:24:55.849Z,22.02
2018-06-29T01:26:05.663Z,21.94
2018-06-29T01:27:15.237Z,21.97
2018-06-29T01:28:25.306Z,21.99
2018-06-29T01:29:35.389Z,21.97
2018-06-29T01:30:45.457Z,21.97
2018-06-29T01:31:55.543Z,21.97
2018-06-29T01:33:05.625Z,22
2018-06-29T01:34:15.704Z,21.9
2018-06-29T01:35:25.795Z,21.97
2018-06-29T01:36:35.891Z,21.94
2018-06-29T01:37:45.690Z,21.93
2018-06-29T01:38:55.492Z,21.9
2018-06-29T01:40:05.585Z,22
2018-06-29T01:41:15.667Z,21.99
2018-06-29T01:42:25.843Z,21.92
2018-06-29T01:43:35.921Z,22
2018-06-29T01:44:45.962Z,21.96
2018-06-29T01:45:56.054Z,21.96
2018-06-29T01:47:05.865Z,21.97
2018-06-29T01:48:15.731Z,21.94
2018-06-29T01:49:25.793Z,21.99
2018-06-29T01:50:35.845Z,22.07
2018-06-29T01:51:45.917Z,22.07
2018-06-29T01:52:56.012Z,21.97
2018-06-29T01:54:06.221Z,22.02
2018-06-29T01:55:16.333Z,21.99
2018-06-29T01:56:26.412Z,21.94
2018-06-29T01:57:36.230Z,22.04
2018-06-29T01:58:46.308Z,21.99
2018-06-29T01:59:56.443Z,22.07
2018-06-29T02:01:06.513Z,22.11
2018-06-29T02:02:16.595Z,22.12
2018-06-29T02:03:26.427Z,22.09
2018-06-29T02:04:38.145Z,22.14
2018-06-29T02:05:48.259Z,22.09
2018-06-29T02:06:58.326Z,22.16
2018-06-29T02:08:08.652Z,22.12
2018-06-29T02:09:18.166Z,22.12
2018-06-29T02:10:28.246Z,22.2
2018-06-29T02:11:38.053Z,22.2
2018-06-29T02:12:48.133Z,22.09
2018-06-29T02:13:57.944Z,22.15
2018-06-29T02:15:08.019Z,22.12
2018-06-29T02:16:17.568Z,22.15
2018-06-29T02:17:27.436Z,22.15
2018-06-29T02:18:37.265Z,22.15
2018-06-29T02:19:47.343Z,22.16
2018-06-29T02:20:57.412Z,22.12
2018-06-29T02:22:07.479Z,22.15
2018-06-29T02:23:17.549Z,22.23
2018-06-29T02:24:27.626Z,22.18
2018-06-29T02:25:37.687Z,22.29
2018-06-29T02:26:47.765Z,22.24
2018-06-29T02:27:57.841Z,22.31
2018-06-29T02:29:07.928Z,22.27
2018-06-29T02:30:18.070Z,22.34
2018-06-29T02:31:27.975Z,22.31
2018-06-29T02:32:38.107Z,22.29
2018-06-29T02:33:48.203Z,22.18
2018-06-29T02:34:58.283Z,22.22
2018-06-29T02:36:08.364Z,22.3
2018-06-29T02:37:18.161Z,22.29
2018-06-29T02:38:27.979Z,22.38
2018-06-29T02:39:38.042Z,22.33
2018-06-29T02:40:48.133Z,22.38
2018-06-29T02:41:58.215Z,22.31
2018-06-29T02:43:08.334Z,22.34
2018-06-29T02:44:18.431Z,22.34
2018-06-29T02:45:28.500Z,22.31
2018-06-29T02:46:38.599Z,22.44
2018-06-29T02:47:48.691Z,22.39
2018-06-29T02:48:58.781Z,22.42
2018-06-29T02:50:08.875Z,22.38
2018-06-29T02:51:18.961Z,22.45
2018-06-29T02:52:28.776Z,22.46
2018-06-29T02:53:38.838Z,22.45
2018-06-29T02:54:48.639Z,22.42
2018-06-29T02:55:58.728Z,22.38
2018-06-29T02:57:08.535Z,22.41
2018-06-29T02:58:18.643Z,22.49
2018-06-29T02:59:28.744Z,22.44
2018-06-29T03:00:38.859Z,22.42
2018-06-29T03:01:48.929Z,22.48
2018-06-29T03:02:59.010Z,22.45
2018-06-29T03:34:45.672Z,21.89
2018-06-29T03:35:55.717Z,21.86
2018-06-29T03:37:05.773Z,21.85
2018-06-29T03:38:15.359Z,21.94
2018-06-29T03:39:25.172Z,21.93
2018-06-29T03:40:35.329Z,22.11
2018-06-29T03:41:45.810Z,22.09
2018-06-29T03:42:55.617Z,22.23
2018-06-29T03:44:05.744Z,22.24
2018-06-29T03:45:15.824Z,22.23
2018-06-29T03:46:25.872Z,22.2
2018-06-29T03:47:35.946Z,22.29
2018-06-29T03:48:46.020Z,22.33
2018-06-29T03:49:55.887Z,22.39
2018-06-29T03:51:05.954Z,22.41
2018-06-29T03:52:15.770Z,22.59
2018-06-29T03:53:25.855Z,22.69
2018-06-29T03:54:35.919Z,22.73
2018-06-29T03:55:45.735Z,22.79
2018-06-29T03:56:55.548Z,22.92
2018-06-29T03:58:05.632Z,22.97
2018-06-29T03:59:15.171Z,23.1
2018-06-29T04:00:25.258Z,23.19
2018-06-29T04:01:35.058Z,23.26
2018-06-29T04:02:45.125Z,23.4
2018-06-29T04:03:55.248Z,23.4
2018-06-29T04:05:05.331Z,23.53
2018-06-29T04:06:15.401Z,23.53
2018-06-29T04:07:24.963Z,23.64
2018-06-29T04:08:35.046Z,23.75
2018-06-29T04:09:44.862Z,23.67
2018-06-29T04:10:54.422Z,23.75
2018-06-29T04:12:04.505Z,23.84
2018-06-29T04:13:14.319Z,23.87
2018-06-29T04:14:24.133Z,23.89
2018-06-29T04:15:34.207Z,23.85
2018-06-29T04:16:44.282Z,23.96
2018-06-29T04:17:54.357Z,24.07
2018-06-29T04:19:04.164Z,24.09
2018-06-29T04:20:14.236Z,24.24
2018-06-29T04:21:24.044Z,24.49
2018-06-29T04:22:34.117Z,24.71
2018-06-29T04:23:43.992Z,24.97
2018-06-29T04:24:54.054Z,25.27
2018-06-29T04:26:04.135Z,25.6
2018-06-29T04:27:14.222Z,25.88
2018-06-29T04:28:24.284Z,26.04
2018-06-29T04:29:34.371Z,26.22
2018-06-29T04:30:44.440Z,26.3
2018-06-29T04:31:54.533Z,26.47
2018-06-29T04:33:04.354Z,26.45
2018-06-29T04:34:14.158Z,26.57
2018-06-29T04:35:24.216Z,26.69
2018-06-29T04:36:34.031Z,26.78
2018-06-29T04:37:43.862Z,26.89
2018-06-29T04:38:53.413Z,26.93
2018-06-29T04:40:03.477Z,27.06
2018-06-29T04:41:13.298Z,27.15
2018-06-29T04:42:23.096Z,27.3
2018-06-29T04:43:33.151Z,27.3
2018-06-29T04:44:43.244Z,27.37
2018-06-29T04:45:52.802Z,27.52
2018-06-29T04:47:02.603Z,27.66
2018-06-29T04:48:12.686Z,27.83
2018-06-29T04:49:22.924Z,27.86
2018-06-29T04:50:33.203Z,28.03
2018-06-29T04:51:43.291Z,28.03
2018-06-29T04:52:53.372Z,28.02
2018-06-29T04:54:03.469Z,28.11
2018-06-29T04:55:13.585Z,27.75
2018-06-29T04:56:23.705Z,27.37
2018-06-29T04:57:33.516Z,27.09
2018-06-29T04:58:43.582Z,26.74
2018-06-29T04:59:53.147Z,26.64
2018-06-29T05:01:03.457Z,26.44
2018-06-29T05:02:13.623Z,26.35
2018-06-29T05:03:23.694Z,26.44
2018-06-29T05:04:33.513Z,26.32
2018-06-29T05:05:43.573Z,26.3
2018-06-29T05:06:53.651Z,26.06
2018-06-29T05:08:03.473Z,25.88
2018-06-29T05:09:13.538Z,25.71
2018-06-29T05:10:23.600Z,25.75
2018-06-29T05:11:34.026Z,25.76
2018-06-29T05:12:44.116Z,25.57
2018-06-29T05:13:54.208Z,25.59
2018-06-29T05:15:04.298Z,25.42
2018-06-29T05:16:14.096Z,25.3
2018-06-29T05:17:24.187Z,25.14
2018-06-29T05:18:33.755Z,25.05
2018-06-29T05:19:43.904Z,24.94
2018-06-29T05:20:53.995Z,24.83
2018-06-29T05:22:04.072Z,24.78
2018-06-29T05:23:13.880Z,24.77
2018-06-29T05:24:23.702Z,24.71
2018-06-29T05:25:33.774Z,24.67
2018-06-29T05:26:43.858Z,24.61
2018-06-29T05:27:53.683Z,24.56
2018-06-29T05:29:03.772Z,24.58
2018-06-29T05:30:13.603Z,24.58
2018-06-29T05:31:23.738Z,24.58
2018-06-29T05:32:33.834Z,24.56
2018-06-29T05:33:43.644Z,24.51
2018-06-29T05:34:53.712Z,24.45
2018-06-29T05:36:03.663Z,24.37
2018-06-29T05:37:13.748Z,24.3
2018-06-29T05:38:23.583Z,24.33
2018-06-29T05:39:33.659Z,24.27
2018-06-29T05:40:43.743Z,24.18
2018-06-29T05:41:53.893Z,24.15
2018-06-29T05:43:03.989Z,24.18
2018-06-29T05:44:14.071Z,24.21
2018-06-29T05:45:24.162Z,24.34
2018-06-29T05:46:34.248Z,24.32
2018-06-29T05:47:44.330Z,24.37
2018-06-29T05:48:54.475Z,24.55
2018-06-29T05:50:04.567Z,24.55
2018-06-29T05:51:14.643Z,24.63
2018-06-29T05:52:24.730Z,24.71
2018-06-29T05:53:34.839Z,24.89
2018-06-29T05:54:44.972Z,25.14
2018-06-29T05:55:54.819Z,25.32
2018-06-29T05:57:04.897Z,25.51
2018-06-29T05:58:14.993Z,25.94
2018-06-29T05:59:24.795Z,26.42
2018-06-29T06:00:34.611Z,26.64
2018-06-29T06:01:44.687Z,27.96
2018-06-29T06:02:54.778Z,28.38
2018-06-29T06:04:04.597Z,28.17
2018-06-29T06:05:14.669Z,27.94
2018-06-29T06:06:24.482Z,27.89
2018-06-29T06:07:34.312Z,28.01
2018-06-29T06:08:44.147Z,28.46
2018-06-29T06:09:54.241Z,28.98
2018-06-29T06:11:04.344Z,29.38
2018-06-29T06:12:14.451Z,29.45
2018-06-29T06:13:24.634Z,29.48
2018-06-29T06:14:34.253Z,30.25
2018-06-29T06:15:44.097Z,30.16
2018-06-29T06:16:54.201Z,30.73
2018-06-29T06:18:04.286Z,30.48
2018-06-29T06:19:14.371Z,30.29
2018-06-29T06:20:24.446Z,30.62
2018-06-29T06:21:34.529Z,30.49
2018-06-29T06:22:44.604Z,30.81
2018-06-29T06:23:54.694Z,30.89
2018-06-29T06:25:04.772Z,30.71
2018-06-29T06:26:14.970Z,30.45
2018-06-29T06:27:24.530Z,30.29
2018-06-29T06:28:34.604Z,30.32
2018-06-29T06:29:44.412Z,30.49
2018-06-29T06:30:54.479Z,30.29
2018-06-29T06:32:04.553Z,31.06
2018-06-29T06:33:14.848Z,30.77
2018-06-29T06:34:24.754Z,30.49
2018-06-29T06:35:34.818Z,30.44
2018-06-29T06:36:44.941Z,30.28
2018-06-29T06:37:54.769Z,30.19
2018-06-29T06:39:04.847Z,30.02
2018-06-29T06:40:14.929Z,29.98
2018-06-29T06:41:25.017Z,29.77
2018-06-29T06:42:34.883Z,29.69
2018-06-29T06:43:45.001Z,29.88
2018-06-29T06:44:55.089Z,30.09
2018-06-29T06:46:05.160Z,30.57
2018-06-29T06:47:15.241Z,30.85
2018-06-29T06:48:25.322Z,31.12
2018-06-29T06:49:35.395Z,31.16
2018-06-29T06:50:45.473Z,31.31
2018-06-29T06:51:55.547Z,31.43
2018-06-29T06:53:05.357Z,31.43
2018-06-29T06:54:15.443Z,31.49
2018-06-29T06:55:25.259Z,31.04
2018-06-29T06:56:35.330Z,30.67
2018-06-29T06:57:45.165Z,30.26
2018-06-29T06:58:55.262Z,29.92
2018-06-29T07:00:04.837Z,29.79
2018-06-29T07:01:14.925Z,29.63
2018-06-29T07:02:24.992Z,29.52
2018-06-29T07:03:35.080Z,29.51
2018-06-29T07:04:45.155Z,29.38
2018-06-29T07:05:55.034Z,29.45
2018-06-29T07:07:04.850Z,29.39
2018-06-29T07:08:14.951Z,29.47
2018-06-29T07:09:24.781Z,29.45
2018-06-29T07:10:34.918Z,29.36
2018-06-29T07:11:45.048Z,29.45
2018-06-29T07:12:55.019Z,29.42
2018-06-29T07:14:04.839Z,29.43
2018-06-29T07:15:14.939Z,29.73
2018-06-29T07:16:25.042Z,30.06
2018-06-29T07:17:35.105Z,30.19
2018-06-29T07:18:44.944Z,30.28
2018-06-29T07:19:55.029Z,30.16
2018-06-29T07:21:05.097Z,30.19
2018-06-29T07:22:15.185Z,30.13
2018-06-29T07:23:25.257Z,30.13
2018-06-29T07:24:35.192Z,30.31
2018-06-29T07:25:45.387Z,30.32
2018-06-29T07:26:55.454Z,30.51
2018-06-29T07:28:05.537Z,30.45
2018-06-29T07:29:16.619Z,30.71
2018-06-29T07:30:26.711Z,30.77
2018-06-29T07:31:36.807Z,30.84
2018-06-29T07:32:46.898Z,30.88
2018-06-29T07:33:56.968Z,31.04
2018-06-29T07:35:06.818Z,31.19
2018-06-29T07:36:16.932Z,31.45
2018-06-29T07:37:27.038Z,31.38
2018-06-29T07:38:37.244Z,31.41
2018-06-29T07:39:47.193Z,31.38
2018-06-29T07:40:57.300Z,31.38
2018-06-29T07:42:07.144Z,31.49
2018-06-29T07:43:17.222Z,31.55
2018-06-29T07:44:27.310Z,31.62
2018-06-29T07:45:37.413Z,31.58
2018-06-29T07:46:47.900Z,31.62
2018-06-29T07:47:58.011Z,31.67
2018-06-29T07:49:07.824Z,31.44
2018-06-29T07:50:17.662Z,31.41
2018-06-29T07:51:27.760Z,31.38
2018-06-29T07:52:37.832Z,31.36
2018-06-29T07:53:47.924Z,31.3
2018-06-29T07:54:58.007Z,30.96
2018-06-29T07:56:08.133Z,30.69
2018-06-29T07:57:18.415Z,30.51
2018-06-29T07:58:29.326Z,30.35
2018-06-29T07:59:39.859Z,30.29
2018-06-29T08:00:49.995Z,30.09
2018-06-29T08:02:00.102Z,30.09
2018-06-29T08:03:10.247Z,29.97
2018-06-29T08:04:20.338Z,29.89
2018-06-29T08:05:30.419Z,29.98
2018-06-29T08:06:40.555Z,30.22
2018-06-29T08:07:50.664Z,30.81
2018-06-29T08:09:00.772Z,31.23
2018-06-29T08:10:10.871Z,31.36
2018-06-29T08:11:20.986Z,31.43
2018-06-29T08:12:31.097Z,31.75
2018-06-29T08:13:41.238Z,31.81
2018-06-29T08:14:51.064Z,31.6
2018-06-29T08:16:00.896Z,31.41
2018-06-29T08:17:11.014Z,31.22
2018-06-29T08:18:21.127Z,30.89
2018-06-29T08:19:31.217Z,30.49
2018-06-29T08:20:41.317Z,30.16
2018-06-29T08:21:51.501Z,30.03
2018-06-29T08:23:01.332Z,29.76
2018-06-29T08:24:11.435Z,29.7
2018-06-29T08:25:21.629Z,29.55
2018-06-29T08:26:31.469Z,29.51
2018-06-29T08:27:41.617Z,29.51
2018-06-29T08:28:51.724Z,29.3
2018-06-29T08:30:01.530Z,29.29
2018-06-29T08:31:11.098Z,29.29
2018-06-29T08:32:20.935Z,29.1
2018-06-29T08:33:30.756Z,29.24
2018-06-29T08:34:40.851Z,29.33
2018-06-29T08:35:50.950Z,29.63
2018-06-29T08:37:01.046Z,30.02
2018-06-29T08:38:11.153Z,30.19
2018-06-29T08:39:20.997Z,30.25
2018-06-29T08:40:31.145Z,30.11
2018-06-29T08:41:41.248Z,29.95
2018-06-29T08:42:51.338Z,29.73
2018-06-29T08:44:01.503Z,29.47
2018-06-29T08:45:11.644Z,29.33
2018-06-29T08:46:21.759Z,29.29
2018-06-29T08:47:31.872Z,29.11
2018-06-29T08:48:41.950Z,29.13
2018-06-29T08:49:52.060Z,29.03
2018-06-29T08:51:01.885Z,29.02
2018-06-29T08:52:12.200Z,29.06
2018-06-29T08:53:22.717Z,29.1
2018-06-29T08:54:32.535Z,29.05
2018-06-29T08:55:42.624Z,29.1
2018-06-29T08:56:52.501Z,29.05
2018-06-29T08:58:02.592Z,28.91
2018-06-29T08:59:12.695Z,28.92
2018-06-29T09:00:22.808Z,29.06
2018-06-29T09:01:32.909Z,29.08
2018-06-29T09:02:43.000Z,29.03
2018-06-29T09:03:53.109Z,28.98
2018-06-29T09:05:03.323Z,28.86
2018-06-29T09:06:13.581Z,28.73
2018-06-29T09:07:23.701Z,28.54
2018-06-29T09:08:33.535Z,28.42
2018-06-29T09:09:43.609Z,28.2
2018-06-29T09:10:53.741Z,28.09
2018-06-29T09:12:03.934Z,28.08
2018-06-29T09:13:13.772Z,27.99
2018-06-29T09:14:23.876Z,28.16
2018-06-29T09:15:33.447Z,28.09
2018-06-29T09:16:43.327Z,28.16
2018-06-29T09:17:53.418Z,28.12
2018-06-29T09:19:03.678Z,28.08
2018-06-29T09:20:14.051Z,28.12
2018-06-29T09:21:24.136Z,28.24
2018-06-29T09:22:33.985Z,28.28
2018-06-29T09:23:44.061Z,28.3
2018-06-29T09:24:53.900Z,28.3
2018-06-29T09:26:03.812Z,28.43
2018-06-29T09:27:13.651Z,28.53
2018-06-29T09:28:23.756Z,28.6
2018-06-29T09:29:33.834Z,28.6
2018-06-29T09:30:43.950Z,28.46
2018-06-29T09:31:54.046Z,28.43
2018-06-29T09:33:04.128Z,28.42
2018-06-29T09:34:14.218Z,28.3
2018-06-29T09:35:24.054Z,28.3
2018-06-29T09:36:34.221Z,28.36
2018-06-29T09:37:44.036Z,28.42
2018-06-29T09:38:53.885Z,28.54
2018-06-29T09:40:03.987Z,28.53
2018-06-29T09:41:29.013Z,28.63
2018-06-29T09:43:00.082Z,28.67
2018-06-29T09:44:10.246Z,28.53
2018-06-29T09:45:20.406Z,28.53
2018-06-29T09:46:30.491Z,28.48
2018-06-29T09:47:40.615Z,28.45
2018-06-29T09:48:50.808Z,28.42
2018-06-29T09:50:00.650Z,28.42
2018-06-29T09:51:10.481Z,28.46
2018-06-29T09:52:20.580Z,28.7
2018-06-29T09:53:30.748Z,28.92
2018-06-29T09:54:40.830Z,29.28
2018-06-29T09:55:50.899Z,29.5
2018-06-29T09:57:00.749Z,29.97
2018-06-29T09:58:10.316Z,30.31
2018-06-29T09:59:19.620Z,30.88
2018-06-29T10:00:29.838Z,31.34
2018-06-29T10:01:40.183Z,31.52
2018-06-29T10:02:50.613Z,31.63
2018-06-29T10:04:00.429Z,31.71
2018-06-29T10:05:10.276Z,31.71
2018-06-29T10:06:20.417Z,31.77
2018-06-29T10:07:30.606Z,31.9
2018-06-29T10:08:40.718Z,32.06
2018-06-29T10:09:50.790Z,32.12
2018-06-29T10:11:00.976Z,32.06
2018-06-29T10:12:11.236Z,32.01
2018-06-29T10:13:21.056Z,32.05
2018-06-29T10:14:31.384Z,32.15
2018-06-29T10:15:41.574Z,32.25
2018-06-29T10:16:51.710Z,32.27
2018-06-29T10:18:02.187Z,32.35
2018-06-29T10:19:13.286Z,32.54
2018-06-29T10:20:25.857Z,32.49
2018-06-29T10:21:38.014Z,32.69
2018-06-29T10:22:50.928Z,32.81
2018-06-29T10:24:02.197Z,32.87
2018-06-29T10:25:13.687Z,32.87
2018-06-29T10:26:24.670Z,32.83
2018-06-29T10:27:35.622Z,32.76
2018-06-29T10:28:46.493Z,32.59
2018-06-29T10:29:56.931Z,32.25
2018-06-29T10:31:07.159Z,32.06
2018-06-29T10:32:17.257Z,31.74
2018-06-29T10:33:27.104Z,31.59
2018-06-29T10:34:37.185Z,31.38
2018-06-29T10:35:47.301Z,31.18
2018-06-29T10:36:57.504Z,30.96
2018-06-29T10:38:07.600Z,30.81
2018-06-29T10:39:17.710Z,30.59
2018-06-29T10:40:27.810Z,30.48
2018-06-29T10:41:38.034Z,30.48
2018-06-29T10:42:47.879Z,30.52
2018-06-29T10:43:57.971Z,30.44
2018-06-29T10:45:08.285Z,30.56
2018-06-29T10:46:18.436Z,30.56
2018-06-29T10:47:28.281Z,30.7
2018-06-29T10:48:38.126Z,30.69
2018-06-29T10:49:48.235Z,30.84
2018-06-29T10:50:58.330Z,30.91
2018-06-29T10:52:08.401Z,30.96
2018-06-29T10:53:18.254Z,30.89
2018-06-29T10:54:28.353Z,31.03
2018-06-29T10:55:38.444Z,31.16
2018-06-29T10:56:48.544Z,31.34
2018-06-29T10:57:58.629Z,31.37
2018-06-29T10:59:08.473Z,31.58
2018-06-29T11:00:18.313Z,31.58
2018-06-29T11:01:28.430Z,31.55
2018-06-29T11:02:37.993Z,31.53
2018-06-29T11:03:48.116Z,31.44
2018-06-29T11:04:58.213Z,31.55
2018-06-29T11:06:08.311Z,31.93
2018-06-29T11:07:18.426Z,32.08
2018-06-29T11:08:28.527Z,32.08
2018-06-29T11:09:38.684Z,32.12
2018-06-29T11:10:48.836Z,32.1
2018-06-29T11:11:59.008Z,32.43
2018-06-29T11:13:09.126Z,32.56
2018-06-29T11:14:19.217Z,32.54
2018-06-29T11:15:29.284Z,32.68
2018-06-29T11:16:39.372Z,33.17
2018-06-29T11:17:49.450Z,33.85
2018-06-29T11:18:59.265Z,34.19
2018-06-29T11:20:09.340Z,34.63
2018-06-29T11:21:19.431Z,34.64
2018-06-29T11:22:29.512Z,34.46
2018-06-29T11:23:39.685Z,34.06
2018-06-29T11:24:49.777Z,33.61
2018-06-29T11:25:59.873Z,33.16
2018-06-29T11:27:09.974Z,32.91
2018-06-29T11:28:20.053Z,32.68
2018-06-29T11:29:30.149Z,32.52
2018-06-29T11:30:40.234Z,32.38
2018-06-29T11:31:50.327Z,32.39
2018-06-29T11:33:00.434Z,32.24
2018-06-29T11:34:10.265Z,32.2
2018-06-29T11:35:20.325Z,32.12
2018-06-29T11:36:30.408Z,32.03
2018-06-29T11:37:40.497Z,31.97
2018-06-29T11:38:50.107Z,31.77
2018-06-29T11:39:59.932Z,31.77
2018-06-29T11:41:10.016Z,31.86
2018-06-29T11:42:20.108Z,31.86
2018-06-29T11:43:30.273Z,31.8
2018-06-29T11:44:40.115Z,31.72
2018-06-29T11:45:50.205Z,31.62
2018-06-29T11:47:00.286Z,31.6
2018-06-29T11:48:10.365Z,31.59
2018-06-29T11:49:20.433Z,31.52
2018-06-29T11:50:30.315Z,31.62
2018-06-29T11:51:40.387Z,31.63
2018-06-29T11:52:50.526Z,31.75
2018-06-29T11:54:00.609Z,31.8
2018-06-29T11:55:10.438Z,31.78
2018-06-29T11:56:21.663Z,31.94
2018-06-29T11:57:31.217Z,32.03
2018-06-29T11:58:41.067Z,32.17
2018-06-29T11:59:50.910Z,32.15
2018-06-29T12:01:00.990Z,32.16
2018-06-29T12:02:11.093Z,32.16
2018-06-29T12:03:20.929Z,32.17
2018-06-29T12:04:31.015Z,32.32
2018-06-29T12:05:40.823Z,32.49
2018-06-29T12:06:50.641Z,32.54
2018-06-29T12:08:01.078Z,32.42
2018-06-29T12:09:11.177Z,32.43
2018-06-29T12:10:20.764Z,32.39
2018-06-29T12:11:30.831Z,32.47
2018-06-29T12:12:40.918Z,32.54
2018-06-29T12:13:50.986Z,32.52
2018-06-29T12:15:01.367Z,32.34
2018-06-29T12:16:11.465Z,32.35
2018-06-29T12:17:21.534Z,32.03
2018-06-29T12:18:31.624Z,31.93
2018-06-29T12:19:41.442Z,31.74
2018-06-29T12:20:51.856Z,31.49
2018-06-29T12:22:02.017Z,31.33
2018-06-29T12:23:11.583Z,31.04
2018-06-29T12:24:21.449Z,30.88
2018-06-29T12:25:31.715Z,30.69
2018-06-29T12:26:42.176Z,30.42
2018-06-29T12:27:52.296Z,30.16
2018-06-29T12:29:02.132Z,30.11
2018-06-29T12:30:12.208Z,29.91
2018-06-29T12:31:22.016Z,29.82
2018-06-29T12:32:32.099Z,29.69
2018-06-29T12:33:42.163Z,29.52
2018-06-29T12:34:52.249Z,29.33
2018-06-29T12:36:02.078Z,29.2
2018-06-29T12:37:11.890Z,29.03
2018-06-29T12:38:21.726Z,29.01
2018-06-29T12:39:31.810Z,28.98
2018-06-29T12:40:41.878Z,28.97
2018-06-29T12:41:51.967Z,28.82
2018-06-29T12:43:02.057Z,28.83
2018-06-29T12:44:11.923Z,28.82
2018-06-29T12:45:22.008Z,28.78
2018-06-29T12:46:32.108Z,28.79
2018-06-29T12:47:41.656Z,28.65
2018-06-29T12:48:51.776Z,28.64
2018-06-29T12:50:01.593Z,28.64
2018-06-29T12:51:11.699Z,28.58
2018-06-29T12:52:21.523Z,28.48
2018-06-29T12:53:31.596Z,28.53
2018-06-29T12:54:41.392Z,28.53
2018-06-29T12:55:51.672Z,28.49
2018-06-29T12:57:02.079Z,28.49
2018-06-29T12:58:11.895Z,28.45
2018-06-29T12:59:21.965Z,28.41
2018-06-29T13:00:31.559Z,28.48
2018-06-29T13:01:41.679Z,28.55
2018-06-29T13:02:51.767Z,28.82
2018-06-29T13:04:01.857Z,28.92
2018-06-29T13:05:11.976Z,29.18
2018-06-29T13:06:22.196Z,29.47
2018-06-29T13:07:32.279Z,29.45
2018-06-29T13:08:42.361Z,29.58
2018-06-29T13:09:52.459Z,29.43
2018-06-29T13:11:02.539Z,29.52
2018-06-29T13:12:12.641Z,29.47
2018-06-29T13:13:22.563Z,29.3
2018-06-29T13:14:32.670Z,29.21
2018-06-29T13:15:42.476Z,29.17
2018-06-29T13:16:52.078Z,29.2
2018-06-29T13:18:02.170Z,29.28
2018-06-29T13:19:12.261Z,29.42
2018-06-29T13:20:22.337Z,29.52
2018-06-29T13:21:32.407Z,29.47
2018-06-29T13:22:42.225Z,29.57
2018-06-29T13:23:52.353Z,29.5
2018-06-29T13:25:02.977Z,29.55
2018-06-29T13:26:13.230Z,29.72
2018-06-29T13:27:23.304Z,29.89
2018-06-29T13:28:33.324Z,30.04
2018-06-29T13:29:43.417Z,30.09
2018-06-29T13:30:53.120Z,30.03
2018-06-29T13:32:03.013Z,29.98
2018-06-29T13:33:13.132Z,30.06
2018-06-29T13:34:23.253Z,29.91
2018-06-29T13:35:33.331Z,29.92
2018-06-29T13:36:43.146Z,29.89
2018-06-29T13:37:53.253Z,29.85
2018-06-29T13:39:03.070Z,29.95
2018-06-29T13:40:13.171Z,29.97
2018-06-29T13:41:23.252Z,30.11
2018-06-29T13:42:33.358Z,30.19
2018-06-29T13:43:43.465Z,30.29
2018-06-29T13:44:53.361Z,30.28
2018-06-29T13:46:03.451Z,30.32
2018-06-29T13:47:13.586Z,30.26
2018-06-29T13:48:23.664Z,30.28
2018-06-29T13:49:33.221Z,30.29
2018-06-29T13:50:43.331Z,30.37
2018-06-29T13:51:53.433Z,30.45
2018-06-29T13:53:03.517Z,30.54
2018-06-29T13:54:13.328Z,30.57
2018-06-29T13:55:22.940Z,30.67
2018-06-29T13:56:33.036Z,30.75
2018-06-29T13:57:43.126Z,30.82
2018-06-29T13:58:52.944Z,30.89
2018-06-29T14:00:03.030Z,30.89
2018-06-29T14:01:13.113Z,30.89
2018-06-29T14:02:23.190Z,30.94
2018-06-29T14:03:33.363Z,30.85
2018-06-29T14:04:43.494Z,30.93
2018-06-29T14:05:53.322Z,31.04
2018-06-29T14:07:03.440Z,30.99
2018-06-29T14:08:13.588Z,31.18
2018-06-29T14:09:23.891Z,31.34
2018-06-29T14:10:34.022Z,31.45
2018-06-29T14:11:44.165Z,31.81
2018-06-29T14:12:54.263Z,32.08
2018-06-29T14:14:04.366Z,32.23
2018-06-29T14:15:14.486Z,32.34
2018-06-29T14:16:24.665Z,32.39
2018-06-29T14:17:34.506Z,32.45
2018-06-29T14:18:44.666Z,32.34
2018-06-29T14:19:55.236Z,32.37
2018-06-29T14:21:05.245Z,32.47
2018-06-29T14:22:15.031Z,32.79
2018-06-29T14:23:25.179Z,32.62
2018-06-29T14:24:35.268Z,32.69
2018-06-29T14:25:46.279Z,32.72
2018-06-29T14:26:56.370Z,32.86
2018-06-29T14:28:06.471Z,32.8
2018-06-29T14:29:16.592Z,32.67
2018-06-29T14:30:26.688Z,32.38
2018-06-29T14:31:36.816Z,32.12
2018-06-29T14:32:46.901Z,31.94
2018-06-29T14:33:56.997Z,31.86
2018-06-29T14:35:07.076Z,31.68
2018-06-29T14:36:17.143Z,31.5
2018-06-29T14:37:27.227Z,31.31
2018-06-29T14:38:37.338Z,31.06
2018-06-29T14:39:47.160Z,30.88
2018-06-29T14:40:56.833Z,30.86
2018-06-29T14:42:06.824Z,30.73
2018-06-29T14:43:16.928Z,30.69
2018-06-29T14:44:27.012Z,30.67
2018-06-29T14:45:36.575Z,30.47
2018-06-29T14:46:46.675Z,30.16
2018-06-29T14:47:56.505Z,30.03
2018-06-29T14:49:06.600Z,30.02
2018-06-29T14:50:16.694Z,29.98
2018-06-29T14:51:27.103Z,30.07
2018-06-29T14:52:36.924Z,30.02
2018-06-29T14:53:47.043Z,29.97
2018-06-29T14:54:56.853Z,30
2018-06-29T14:56:06.944Z,29.92
2018-06-29T14:57:18.103Z,29.85
2018-06-29T14:58:27.952Z,29.76
2018-06-29T14:59:38.048Z,29.67
2018-06-29T15:00:48.188Z,29.45
2018-06-29T15:01:58.290Z,29.43
2018-06-29T15:03:08.148Z,29.45
2018-06-29T15:04:18.245Z,29.36
2018-06-29T15:05:28.404Z,29.33
2018-06-29T15:06:38.263Z,29.26
2018-06-29T15:07:48.363Z,29.39
2018-06-29T15:08:58.495Z,29.42
2018-06-29T15:10:08.324Z,29.54
2018-06-29T15:11:18.433Z,29.69
2018-06-29T15:12:28.564Z,29.88
2018-06-29T15:13:38.827Z,30.03
2018-06-29T15:14:48.696Z,30.19
2018-06-29T15:15:58.693Z,30.25
2018-06-29T15:17:08.821Z,30.28
2018-06-29T15:18:18.923Z,30.54
2018-06-29T15:19:29.027Z,30.59
2018-06-29T15:20:39.135Z,30.71
2018-06-29T15:21:49.421Z,30.7
2018-06-29T15:22:59.641Z,30.81
2018-06-29T15:24:09.770Z,31.1
2018-06-29T15:25:19.759Z,31.49
2018-06-29T15:26:30.100Z,31.7
2018-06-29T15:27:40.224Z,32.08
2018-06-29T15:28:50.646Z,32.31
2018-06-29T15:30:00.780Z,32.39
2018-06-29T15:31:10.753Z,32.52
2018-06-29T15:32:21.142Z,32.61
2018-06-29T15:33:30.976Z,32.54
2018-06-29T15:34:41.247Z,32.45
2018-06-29T15:35:52.913Z,32.3